sensor_id;sensor_type;location;lat;lon;timestamp;temperature;humidity
11666;DHT22;5889;51.350;6.708;2023-10-08T00:02:09;18.80;99.90
11666;DHT22;5889;51.350;6.708;2023-10-08T00:04:36;18.80;99.90
11666;DHT22;5889;51.350;6.708;2023-10-08T00:07:04;18.80;99.90
11666;DHT22;5889;51.350;6.708;2023-10-08T00:09:34;18.80;99.90
11666;DHT22;5889;51.350;6.708;2023-10-08T00:12:03;18.80;99.90
11666;DHT22;5889;51.350;6.708;2023-10-08T00:14:30;18.80;99.90
11666;DHT22;5889;51.350;6.708;2023-10-08T00:16:58;18.80;99.90
11666;DHT22;5889;51.350;6.708;2023-10-08T00:19:25;18.80;99.90
11666;DHT22;5889;51.350;6.708;2023-10-08T00:21:59;18.80;99.90
11666;DHT22;5889;51.350;6.708;2023-10-08T00:24:31;18.70;99.90
11666;DHT22;5889;51.350;6.708;2023-10-08T00:27:00;18.70;99.90
11666;DHT22;5889;51.350;6.708;2023-10-08T00:29:27;18.70;99.90
11666;DHT22;5889;51.350;6.708;2023-10-08T00:31:57;18.70;99.90
11666;DHT22;5889;51.350;6.708;2023-10-08T00:34:24;18.70;99.90
11666;DHT22;5889;51.350;6.708;2023-10-08T00:36:53;18.60;99.90
11666;DHT22;5889;51.350;6.708;2023-10-08T00:39:21;18.60;99.90
11666;DHT22;5889;51.350;6.708;2023-10-08T00:41:53;18.60;99.90
11666;DHT22;5889;51.350;6.708;2023-10-08T00:44:25;18.60;99.90
11666;DHT22;5889;51.350;6.708;2023-10-08T00:46:56;18.60;99.90
11666;DHT22;5889;51.350;6.708;2023-10-08T00:49:27;18.60;99.90
11666;DHT22;5889;51.350;6.708;2023-10-08T00:52:14;18.60;99.90
11666;DHT22;5889;51.350;6.708;2023-10-08T00:54:56;18.50;99.90
11666;DHT22;5889;51.350;6.708;2023-10-08T00:57:35;18.50;99.90
11666;DHT22;5889;51.350;6.708;2023-10-08T01:00:05;18.50;99.90
11666;DHT22;5889;51.350;6.708;2023-10-08T01:02:41;18.50;99.90
11666;DHT22;5889;51.350;6.708;2023-10-08T01:05:15;18.50;99.90
11666;DHT22;5889;51.350;6.708;2023-10-08T01:07:49;18.50;99.90
11666;DHT22;5889;51.350;6.708;2023-10-08T01:10:17;18.50;99.90
11666;DHT22;5889;51.350;6.708;2023-10-08T01:12:46;18.40;99.90
11666;DHT22;5889;51.350;6.708;2023-10-08T01:15:31;18.40;99.90
11666;DHT22;5889;51.350;6.708;2023-10-08T01:18:02;18.30;99.90
11666;DHT22;5889;51.350;6.708;2023-10-08T01:20:30;18.20;99.90
11666;DHT22;5889;51.350;6.708;2023-10-08T01:23:04;18.20;99.90
11666;DHT22;5889;51.350;6.708;2023-10-08T01:25:36;18.10;99.90
11666;DHT22;5889;51.350;6.708;2023-10-08T01:28:05;18.10;99.90
11666;DHT22;5889;51.350;6.708;2023-10-08T01:30:35;18.00;99.90
11666;DHT22;5889;51.350;6.708;2023-10-08T01:33:07;18.00;99.90
11666;DHT22;5889;51.350;6.708;2023-10-08T01:35:39;18.00;99.90
11666;DHT22;5889;51.350;6.708;2023-10-08T01:38:08;17.90;99.90
11666;DHT22;5889;51.350;6.708;2023-10-08T01:40:40;17.90;99.90
11666;DHT22;5889;51.350;6.708;2023-10-08T01:43:07;17.80;99.90
11666;DHT22;5889;51.350;6.708;2023-10-08T01:45:36;17.80;99.90
11666;DHT22;5889;51.350;6.708;2023-10-08T01:48:06;17.80;99.90
11666;DHT22;5889;51.350;6.708;2023-10-08T01:50:35;17.80;99.90
11666;DHT22;5889;51.350;6.708;2023-10-08T01:53:03;17.70;99.90
11666;DHT22;5889;51.350;6.708;2023-10-08T01:55:36;17.70;99.90
11666;DHT22;5889;51.350;6.708;2023-10-08T01:58:15;17.70;99.90
11666;DHT22;5889;51.350;6.708;2023-10-08T02:00:43;17.70;99.90
11666;DHT22;5889;51.350;6.708;2023-10-08T02:03:12;17.70;99.90
11666;DHT22;5889;51.350;6.708;2023-10-08T02:05:41;17.70;99.90
11666;DHT22;5889;51.350;6.708;2023-10-08T02:08:08;17.70;99.90
11666;DHT22;5889;51.350;6.708;2023-10-08T02:10:38;17.70;99.90
11666;DHT22;5889;51.350;6.708;2023-10-08T02:13:06;17.70;99.90
11666;DHT22;5889;51.350;6.708;2023-10-08T02:15:34;17.70;99.90
11666;DHT22;5889;51.350;6.708;2023-10-08T02:18:02;17.70;99.90
11666;DHT22;5889;51.350;6.708;2023-10-08T02:20:30;17.70;99.90
11666;DHT22;5889;51.350;6.708;2023-10-08T02:22:58;17.70;99.90
11666;DHT22;5889;51.350;6.708;2023-10-08T02:25:26;17.70;99.90
11666;DHT22;5889;51.350;6.708;2023-10-08T02:27:54;17.70;99.90
11666;DHT22;5889;51.350;6.708;2023-10-08T02:30:21;17.70;99.90
11666;DHT22;5889;51.350;6.708;2023-10-08T02:32:48;17.70;99.90
11666;DHT22;5889;51.350;6.708;2023-10-08T02:35:15;17.70;99.90
11666;DHT22;5889;51.350;6.708;2023-10-08T02:37:42;17.60;99.90
11666;DHT22;5889;51.350;6.708;2023-10-08T02:40:11;17.60;99.90
11666;DHT22;5889;51.350;6.708;2023-10-08T02:42:46;17.60;99.90
11666;DHT22;5889;51.350;6.708;2023-10-08T02:45:14;17.60;99.90
11666;DHT22;5889;51.350;6.708;2023-10-08T02:47:42;17.50;99.90
11666;DHT22;5889;51.350;6.708;2023-10-08T02:50:11;17.50;99.90
11666;DHT22;5889;51.350;6.708;2023-10-08T02:52:42;17.50;99.90
11666;DHT22;5889;51.350;6.708;2023-10-08T02:55:11;17.50;99.90
11666;DHT22;5889;51.350;6.708;2023-10-08T02:57:50;17.40;99.90
11666;DHT22;5889;51.350;6.708;2023-10-08T03:00:19;17.40;99.90
11666;DHT22;5889;51.350;6.708;2023-10-08T03:02:46;17.40;99.90
11666;DHT22;5889;51.350;6.708;2023-10-08T03:05:13;17.40;99.90
11666;DHT22;5889;51.350;6.708;2023-10-08T03:07:43;17.40;99.90
11666;DHT22;5889;51.350;6.708;2023-10-08T03:10:10;17.40;99.90
11666;DHT22;5889;51.350;6.708;2023-10-08T03:12:44;17.30;99.90
11666;DHT22;5889;51.350;6.708;2023-10-08T03:15:14;17.20;99.90
11666;DHT22;5889;51.350;6.708;2023-10-08T03:17:54;17.20;99.90
11666;DHT22;5889;51.350;6.708;2023-10-08T03:20:23;17.20;99.90
11666;DHT22;5889;51.350;6.708;2023-10-08T03:23:04;17.30;99.90
11666;DHT22;5889;51.350;6.708;2023-10-08T03:25:38;17.20;99.90
11666;DHT22;5889;51.350;6.708;2023-10-08T03:28:08;17.20;99.90
11666;DHT22;5889;51.350;6.708;2023-10-08T03:30:38;17.10;99.90
11666;DHT22;5889;51.350;6.708;2023-10-08T03:33:16;17.00;99.90
11666;DHT22;5889;51.350;6.708;2023-10-08T03:35:48;17.00;99.90
11666;DHT22;5889;51.350;6.708;2023-10-08T03:38:18;16.90;99.90
11666;DHT22;5889;51.350;6.708;2023-10-08T03:40:48;16.80;99.90
11666;DHT22;5889;51.350;6.708;2023-10-08T03:43:16;16.80;99.90
11666;DHT22;5889;51.350;6.708;2023-10-08T03:45:50;16.80;99.90
11666;DHT22;5889;51.350;6.708;2023-10-08T03:48:20;16.80;99.90
11666;DHT22;5889;51.350;6.708;2023-10-08T03:50:48;16.80;99.90
11666;DHT22;5889;51.350;6.708;2023-10-08T03:53:22;16.80;99.90
11666;DHT22;5889;51.350;6.708;2023-10-08T03:55:50;16.80;99.90
11666;DHT22;5889;51.350;6.708;2023-10-08T03:58:20;16.80;99.90
11666;DHT22;5889;51.350;6.708;2023-10-08T04:00:57;16.80;99.90
11666;DHT22;5889;51.350;6.708;2023-10-08T04:03:35;16.80;99.90
11666;DHT22;5889;51.350;6.708;2023-10-08T04:06:23;16.80;99.90
11666;DHT22;5889;51.350;6.708;2023-10-08T04:08:56;16.80;99.90
11666;DHT22;5889;51.350;6.708;2023-10-08T04:11:37;16.80;99.90
11666;DHT22;5889;51.350;6.708;2023-10-08T04:14:18;16.80;99.90
11666;DHT22;5889;51.350;6.708;2023-10-08T04:16:45;16.80;99.90
11666;DHT22;5889;51.350;6.708;2023-10-08T04:19:18;16.80;99.90
11666;DHT22;5889;51.350;6.708;2023-10-08T04:21:46;16.70;99.90
11666;DHT22;5889;51.350;6.708;2023-10-08T04:24:21;16.60;99.90
11666;DHT22;5889;51.350;6.708;2023-10-08T04:26:54;16.60;99.90
11666;DHT22;5889;51.350;6.708;2023-10-08T04:29:23;16.60;99.90
11666;DHT22;5889;51.350;6.708;2023-10-08T04:31:50;16.50;99.90
11666;DHT22;5889;51.350;6.708;2023-10-08T04:34:28;16.40;99.90
11666;DHT22;5889;51.350;6.708;2023-10-08T04:36:55;16.40;99.90
11666;DHT22;5889;51.350;6.708;2023-10-08T04:39:26;16.30;99.90
11666;DHT22;5889;51.350;6.708;2023-10-08T04:41:58;16.40;99.90
11666;DHT22;5889;51.350;6.708;2023-10-08T04:44:31;16.40;99.90
11666;DHT22;5889;51.350;6.708;2023-10-08T04:46:59;16.40;99.90
11666;DHT22;5889;51.350;6.708;2023-10-08T04:49:32;16.40;99.90
11666;DHT22;5889;51.350;6.708;2023-10-08T04:52:04;16.50;99.90
11666;DHT22;5889;51.350;6.708;2023-10-08T04:54:35;16.50;99.90
11666;DHT22;5889;51.350;6.708;2023-10-08T04:57:06;16.50;99.90
11666;DHT22;5889;51.350;6.708;2023-10-08T04:59:41;16.50;99.90
11666;DHT22;5889;51.350;6.708;2023-10-08T05:02:09;16.60;99.90
11666;DHT22;5889;51.350;6.708;2023-10-08T05:04:47;16.60;99.90
11666;DHT22;5889;51.350;6.708;2023-10-08T05:07:32;16.60;99.90
11666;DHT22;5889;51.350;6.708;2023-10-08T05:10:14;16.50;99.90
11666;DHT22;5889;51.350;6.708;2023-10-08T05:12:55;16.50;99.90
11666;DHT22;5889;51.350;6.708;2023-10-08T05:15:41;16.40;99.90
11666;DHT22;5889;51.350;6.708;2023-10-08T05:18:13;16.40;99.90
11666;DHT22;5889;51.350;6.708;2023-10-08T05:20:50;16.20;99.90
11666;DHT22;5889;51.350;6.708;2023-10-08T05:23:27;16.10;99.90
11666;DHT22;5889;51.350;6.708;2023-10-08T05:26:39;16.10;99.90
11666;DHT22;5889;51.350;6.708;2023-10-08T05:29:10;15.90;99.90
11666;DHT22;5889;51.350;6.708;2023-10-08T05:32:16;15.80;99.90
11666;DHT22;5889;51.350;6.708;2023-10-08T05:35:05;15.70;99.90
11666;DHT22;5889;51.350;6.708;2023-10-08T05:37:47;15.70;99.90
11666;DHT22;5889;51.350;6.708;2023-10-08T05:40:17;15.60;99.90
11666;DHT22;5889;51.350;6.708;2023-10-08T05:43:19;15.70;99.90
11666;DHT22;5889;51.350;6.708;2023-10-08T05:46:12;15.70;99.90
11666;DHT22;5889;51.350;6.708;2023-10-08T05:48:45;15.80;99.90
11666;DHT22;5889;51.350;6.708;2023-10-08T05:51:26;15.90;99.90
11666;DHT22;5889;51.350;6.708;2023-10-08T05:54:11;15.90;99.90
11666;DHT22;5889;51.350;6.708;2023-10-08T05:56:51;16.00;99.90
11666;DHT22;5889;51.350;6.708;2023-10-08T05:59:32;16.00;99.90
11666;DHT22;5889;51.350;6.708;2023-10-08T06:02:05;16.00;99.90
11666;DHT22;5889;51.350;6.708;2023-10-08T06:04:51;16.10;99.90
11666;DHT22;5889;51.350;6.708;2023-10-08T06:07:37;16.10;99.90
11666;DHT22;5889;51.350;6.708;2023-10-08T06:10:24;16.10;99.90
11666;DHT22;5889;51.350;6.708;2023-10-08T06:13:09;16.10;99.90
11666;DHT22;5889;51.350;6.708;2023-10-08T06:15:40;16.10;99.90
11666;DHT22;5889;51.350;6.708;2023-10-08T06:18:14;16.10;99.90
11666;DHT22;5889;51.350;6.708;2023-10-08T06:20:41;16.20;99.90
11666;DHT22;5889;51.350;6.708;2023-10-08T06:23:10;16.20;99.90
11666;DHT22;5889;51.350;6.708;2023-10-08T06:25:40;16.20;99.90
11666;DHT22;5889;51.350;6.708;2023-10-08T06:28:14;16.20;99.90
11666;DHT22;5889;51.350;6.708;2023-10-08T06:30:44;16.20;99.90
11666;DHT22;5889;51.350;6.708;2023-10-08T06:33:12;16.10;99.90
11666;DHT22;5889;51.350;6.708;2023-10-08T06:35:39;16.20;99.90
11666;DHT22;5889;51.350;6.708;2023-10-08T06:38:10;16.20;99.90
11666;DHT22;5889;51.350;6.708;2023-10-08T06:40:37;16.20;99.90
11666;DHT22;5889;51.350;6.708;2023-10-08T06:43:09;16.20;99.90
11666;DHT22;5889;51.350;6.708;2023-10-08T06:45:44;16.30;99.90
11666;DHT22;5889;51.350;6.708;2023-10-08T06:48:14;16.30;99.90
11666;DHT22;5889;51.350;6.708;2023-10-08T06:50:46;16.40;99.90
11666;DHT22;5889;51.350;6.708;2023-10-08T06:53:13;16.40;99.90
11666;DHT22;5889;51.350;6.708;2023-10-08T06:55:40;16.40;99.90
11666;DHT22;5889;51.350;6.708;2023-10-08T06:58:09;16.40;99.90
11666;DHT22;5889;51.350;6.708;2023-10-08T07:00:37;16.40;99.90
11666;DHT22;5889;51.350;6.708;2023-10-08T07:03:06;16.40;99.90
11666;DHT22;5889;51.350;6.708;2023-10-08T07:05:34;16.40;99.90
11666;DHT22;5889;51.350;6.708;2023-10-08T07:08:07;16.30;99.90
11666;DHT22;5889;51.350;6.708;2023-10-08T07:10:43;16.30;99.90
11666;DHT22;5889;51.350;6.708;2023-10-08T07:13:14;16.30;99.90
11666;DHT22;5889;51.350;6.708;2023-10-08T07:15:52;16.40;99.90
11666;DHT22;5889;51.350;6.708;2023-10-08T07:18:19;16.50;99.90
11666;DHT22;5889;51.350;6.708;2023-10-08T07:20:51;16.50;99.90
11666;DHT22;5889;51.350;6.708;2023-10-08T07:23:27;16.50;99.90
11666;DHT22;5889;51.350;6.708;2023-10-08T07:26:04;16.50;99.90
11666;DHT22;5889;51.350;6.708;2023-10-08T07:28:39;16.50;99.90
11666;DHT22;5889;51.350;6.708;2023-10-08T07:31:13;16.50;99.90
11666;DHT22;5889;51.350;6.708;2023-10-08T07:33:50;16.40;99.90
11666;DHT22;5889;51.350;6.708;2023-10-08T07:36:22;16.30;99.90
11666;DHT22;5889;51.350;6.708;2023-10-08T07:38:53;16.30;99.90
11666;DHT22;5889;51.350;6.708;2023-10-08T07:41:25;16.40;99.90
11666;DHT22;5889;51.350;6.708;2023-10-08T07:44:00;16.40;99.90
11666;DHT22;5889;51.350;6.708;2023-10-08T07:46:33;16.30;99.90
11666;DHT22;5889;51.350;6.708;2023-10-08T07:49:05;16.30;99.90
11666;DHT22;5889;51.350;6.708;2023-10-08T07:51:40;16.30;99.90
11666;DHT22;5889;51.350;6.708;2023-10-08T07:54:14;16.30;99.90
11666;DHT22;5889;51.350;6.708;2023-10-08T07:56:42;16.10;99.90
11666;DHT22;5889;51.350;6.708;2023-10-08T07:59:11;16.00;99.90
11666;DHT22;5889;51.350;6.708;2023-10-08T08:01:41;16.00;99.90
11666;DHT22;5889;51.350;6.708;2023-10-08T08:04:09;16.00;99.90
11666;DHT22;5889;51.350;6.708;2023-10-08T08:06:49;16.00;99.90
11666;DHT22;5889;51.350;6.708;2023-10-08T08:09:20;16.10;99.90
11666;DHT22;5889;51.350;6.708;2023-10-08T08:11:49;16.10;99.90
11666;DHT22;5889;51.350;6.708;2023-10-08T08:14:18;16.30;99.90
11666;DHT22;5889;51.350;6.708;2023-10-08T08:16:51;16.40;99.90
11666;DHT22;5889;51.350;6.708;2023-10-08T08:19:26;16.50;99.90
11666;DHT22;5889;51.350;6.708;2023-10-08T08:21:57;16.70;99.90
11666;DHT22;5889;51.350;6.708;2023-10-08T08:24:33;16.80;99.90
11666;DHT22;5889;51.350;6.708;2023-10-08T08:27:03;16.80;99.90
11666;DHT22;5889;51.350;6.708;2023-10-08T08:29:39;16.90;99.90
11666;DHT22;5889;51.350;6.708;2023-10-08T08:32:11;16.90;99.90
11666;DHT22;5889;51.350;6.708;2023-10-08T08:34:41;16.90;99.90
11666;DHT22;5889;51.350;6.708;2023-10-08T08:37:10;17.00;99.90
11666;DHT22;5889;51.350;6.708;2023-10-08T08:39:39;17.00;99.90
11666;DHT22;5889;51.350;6.708;2023-10-08T08:42:13;17.00;99.90
11666;DHT22;5889;51.350;6.708;2023-10-08T08:44:44;17.10;99.90
11666;DHT22;5889;51.350;6.708;2023-10-08T08:47:21;17.20;99.90
11666;DHT22;5889;51.350;6.708;2023-10-08T08:49:57;17.40;99.90
11666;DHT22;5889;51.350;6.708;2023-10-08T08:52:34;17.50;99.90
11666;DHT22;5889;51.350;6.708;2023-10-08T08:55:03;17.70;99.90
11666;DHT22;5889;51.350;6.708;2023-10-08T08:57:36;17.80;99.90
11666;DHT22;5889;51.350;6.708;2023-10-08T09:00:10;17.90;99.90
11666;DHT22;5889;51.350;6.708;2023-10-08T09:02:39;18.10;99.90
11666;DHT22;5889;51.350;6.708;2023-10-08T09:05:10;18.30;99.90
11666;DHT22;5889;51.350;6.708;2023-10-08T09:07:57;18.50;99.90
11666;DHT22;5889;51.350;6.708;2023-10-08T09:10:25;18.70;99.90
11666;DHT22;5889;51.350;6.708;2023-10-08T09:12:55;18.80;99.90
11666;DHT22;5889;51.350;6.708;2023-10-08T09:15:29;18.90;99.90
11666;DHT22;5889;51.350;6.708;2023-10-08T09:17:58;19.10;99.90
11666;DHT22;5889;51.350;6.708;2023-10-08T09:20:26;19.20;99.90
11666;DHT22;5889;51.350;6.708;2023-10-08T09:23:06;19.30;99.90
11666;DHT22;5889;51.350;6.708;2023-10-08T09:25:37;19.30;99.90
11666;DHT22;5889;51.350;6.708;2023-10-08T09:28:06;19.20;99.90
11666;DHT22;5889;51.350;6.708;2023-10-08T09:30:41;19.20;99.90
11666;DHT22;5889;51.350;6.708;2023-10-08T09:33:12;19.20;99.90
11666;DHT22;5889;51.350;6.708;2023-10-08T09:35:40;19.30;99.90
11666;DHT22;5889;51.350;6.708;2023-10-08T09:38:09;19.40;99.90
11666;DHT22;5889;51.350;6.708;2023-10-08T09:40:38;19.50;99.90
11666;DHT22;5889;51.350;6.708;2023-10-08T09:43:07;19.40;99.90
11666;DHT22;5889;51.350;6.708;2023-10-08T09:45:40;19.20;99.90
11666;DHT22;5889;51.350;6.708;2023-10-08T09:48:16;19.00;99.90
11666;DHT22;5889;51.350;6.708;2023-10-08T09:50:55;18.90;99.90
11666;DHT22;5889;51.350;6.708;2023-10-08T09:53:31;18.80;99.90
11666;DHT22;5889;51.350;6.708;2023-10-08T09:56:02;18.70;99.90
11666;DHT22;5889;51.350;6.708;2023-10-08T09:58:34;18.70;99.90
11666;DHT22;5889;51.350;6.708;2023-10-08T10:01:07;18.70;99.90
11666;DHT22;5889;51.350;6.708;2023-10-08T10:03:37;18.90;99.90
11666;DHT22;5889;51.350;6.708;2023-10-08T10:06:15;19.00;99.90
11666;DHT22;5889;51.350;6.708;2023-10-08T10:08:45;18.90;99.90
11666;DHT22;5889;51.350;6.708;2023-10-08T10:11:16;18.90;99.90
11666;DHT22;5889;51.350;6.708;2023-10-08T10:13:49;18.90;99.90
11666;DHT22;5889;51.350;6.708;2023-10-08T10:16:21;18.80;99.90
11666;DHT22;5889;51.350;6.708;2023-10-08T10:18:55;18.90;99.90
11666;DHT22;5889;51.350;6.708;2023-10-08T10:21:28;18.90;99.90
11666;DHT22;5889;51.350;6.708;2023-10-08T10:23:57;18.90;99.90
11666;DHT22;5889;51.350;6.708;2023-10-08T10:26:28;19.00;99.90
11666;DHT22;5889;51.350;6.708;2023-10-08T10:29:26;18.90;99.90
11666;DHT22;5889;51.350;6.708;2023-10-08T10:31:58;19.00;99.90
11666;DHT22;5889;51.350;6.708;2023-10-08T10:34:32;19.20;99.90
11666;DHT22;5889;51.350;6.708;2023-10-08T10:37:03;19.30;99.90
11666;DHT22;5889;51.350;6.708;2023-10-08T10:39:35;19.40;99.90
11666;DHT22;5889;51.350;6.708;2023-10-08T10:42:06;19.60;99.90
11666;DHT22;5889;51.350;6.708;2023-10-08T10:44:49;19.60;99.90
11666;DHT22;5889;51.350;6.708;2023-10-08T10:47:24;19.60;99.90
11666;DHT22;5889;51.350;6.708;2023-10-08T10:49:55;19.60;99.90
11666;DHT22;5889;51.350;6.708;2023-10-08T10:53:13;19.60;99.90
11666;DHT22;5889;51.350;6.708;2023-10-08T10:55:45;19.60;99.90
11666;DHT22;5889;51.350;6.708;2023-10-08T10:58:25;19.40;99.90
11666;DHT22;5889;51.350;6.708;2023-10-08T11:01:01;19.30;99.90
11666;DHT22;5889;51.350;6.708;2023-10-08T11:03:36;19.20;99.90
11666;DHT22;5889;51.350;6.708;2023-10-08T11:06:12;19.00;99.90
11666;DHT22;5889;51.350;6.708;2023-10-08T11:08:53;18.90;99.90
11666;DHT22;5889;51.350;6.708;2023-10-08T11:11:26;18.70;99.90
11666;DHT22;5889;51.350;6.708;2023-10-08T11:13:59;18.70;99.90
11666;DHT22;5889;51.350;6.708;2023-10-08T11:16:27;18.60;99.90
11666;DHT22;5889;51.350;6.708;2023-10-08T11:18:57;18.50;99.90
11666;DHT22;5889;51.350;6.708;2023-10-08T11:21:32;18.50;99.90
11666;DHT22;5889;51.350;6.708;2023-10-08T11:24:04;18.50;99.90
11666;DHT22;5889;51.350;6.708;2023-10-08T11:26:36;18.60;99.90
11666;DHT22;5889;51.350;6.708;2023-10-08T11:29:06;18.70;99.90
11666;DHT22;5889;51.350;6.708;2023-10-08T11:31:47;18.70;99.90
11666;DHT22;5889;51.350;6.708;2023-10-08T11:34:17;18.80;99.90
11666;DHT22;5889;51.350;6.708;2023-10-08T11:36:53;18.80;99.90
11666;DHT22;5889;51.350;6.708;2023-10-08T11:39:23;18.70;99.90
11666;DHT22;5889;51.350;6.708;2023-10-08T11:42:01;18.80;99.90
11666;DHT22;5889;51.350;6.708;2023-10-08T11:44:33;18.70;99.90
11666;DHT22;5889;51.350;6.708;2023-10-08T11:47:02;18.60;99.90
11666;DHT22;5889;51.350;6.708;2023-10-08T11:49:38;18.50;99.90
11666;DHT22;5889;51.350;6.708;2023-10-08T11:52:13;18.50;99.90
11666;DHT22;5889;51.350;6.708;2023-10-08T11:54:45;18.40;99.90
11666;DHT22;5889;51.350;6.708;2023-10-08T11:57:15;18.40;99.90
11666;DHT22;5889;51.350;6.708;2023-10-08T11:59:47;18.50;99.90
11666;DHT22;5889;51.350;6.708;2023-10-08T12:02:17;18.60;99.90
11666;DHT22;5889;51.350;6.708;2023-10-08T12:04:49;18.80;99.90
11666;DHT22;5889;51.350;6.708;2023-10-08T12:07:19;19.00;99.90
11666;DHT22;5889;51.350;6.708;2023-10-08T12:09:50;19.10;99.90
11666;DHT22;5889;51.350;6.708;2023-10-08T12:12:20;19.10;99.90
11666;DHT22;5889;51.350;6.708;2023-10-08T12:14:49;19.10;99.90
11666;DHT22;5889;51.350;6.708;2023-10-08T12:17:20;19.20;99.90
11666;DHT22;5889;51.350;6.708;2023-10-08T12:19:56;19.20;99.90
11666;DHT22;5889;51.350;6.708;2023-10-08T12:22:25;19.00;99.90
11666;DHT22;5889;51.350;6.708;2023-10-08T12:24:57;18.90;99.90
11666;DHT22;5889;51.350;6.708;2023-10-08T12:27:26;18.90;99.90
11666;DHT22;5889;51.350;6.708;2023-10-08T12:29:57;18.90;99.90
11666;DHT22;5889;51.350;6.708;2023-10-08T12:32:28;19.00;99.90
11666;DHT22;5889;51.350;6.708;2023-10-08T12:35:55;18.90;99.90
11666;DHT22;5889;51.350;6.708;2023-10-08T12:38:45;19.00;99.90
11666;DHT22;5889;51.350;6.708;2023-10-08T12:41:28;19.10;99.90
11666;DHT22;5889;51.350;6.708;2023-10-08T12:43:57;19.20;99.90
11666;DHT22;5889;51.350;6.708;2023-10-08T12:46:25;19.20;99.90
11666;DHT22;5889;51.350;6.708;2023-10-08T12:48:56;19.20;99.90
11666;DHT22;5889;51.350;6.708;2023-10-08T12:51:27;19.20;99.90
11666;DHT22;5889;51.350;6.708;2023-10-08T12:54:00;19.10;99.90
11666;DHT22;5889;51.350;6.708;2023-10-08T12:56:34;19.00;99.90
11666;DHT22;5889;51.350;6.708;2023-10-08T12:59:11;19.00;99.90
11666;DHT22;5889;51.350;6.708;2023-10-08T13:01:46;19.10;99.90
11666;DHT22;5889;51.350;6.708;2023-10-08T13:04:17;19.10;99.90
11666;DHT22;5889;51.350;6.708;2023-10-08T13:06:52;19.00;99.90
11666;DHT22;5889;51.350;6.708;2023-10-08T13:09:23;18.80;99.90
11666;DHT22;5889;51.350;6.708;2023-10-08T13:11:52;18.80;99.90
11666;DHT22;5889;51.350;6.708;2023-10-08T13:14:20;18.90;99.90
11666;DHT22;5889;51.350;6.708;2023-10-08T13:16:49;18.90;99.90
11666;DHT22;5889;51.350;6.708;2023-10-08T13:19:19;18.80;99.90
11666;DHT22;5889;51.350;6.708;2023-10-08T13:21:49;18.80;99.90
11666;DHT22;5889;51.350;6.708;2023-10-08T13:24:20;18.80;99.90
11666;DHT22;5889;51.350;6.708;2023-10-08T13:26:47;18.80;99.90
11666;DHT22;5889;51.350;6.708;2023-10-08T13:29:18;18.80;99.90
11666;DHT22;5889;51.350;6.708;2023-10-08T13:31:46;19.00;99.90
11666;DHT22;5889;51.350;6.708;2023-10-08T13:34:16;19.10;99.90
11666;DHT22;5889;51.350;6.708;2023-10-08T13:36:44;19.20;99.90
11666;DHT22;5889;51.350;6.708;2023-10-08T13:39:12;19.20;99.90
11666;DHT22;5889;51.350;6.708;2023-10-08T13:41:49;19.30;99.90
11666;DHT22;5889;51.350;6.708;2023-10-08T13:44:23;19.40;99.90
11666;DHT22;5889;51.350;6.708;2023-10-08T13:46:55;19.50;99.90
11666;DHT22;5889;51.350;6.708;2023-10-08T13:49:24;19.60;99.90
11666;DHT22;5889;51.350;6.708;2023-10-08T13:51:57;19.40;99.90
11666;DHT22;5889;51.350;6.708;2023-10-08T13:54:25;19.20;99.90
11666;DHT22;5889;51.350;6.708;2023-10-08T13:56:55;19.20;99.90
11666;DHT22;5889;51.350;6.708;2023-10-08T13:59:24;19.40;99.90
11666;DHT22;5889;51.350;6.708;2023-10-08T14:01:52;19.30;99.90
11666;DHT22;5889;51.350;6.708;2023-10-08T14:04:21;19.40;99.90
11666;DHT22;5889;51.350;6.708;2023-10-08T14:06:56;19.50;99.90
11666;DHT22;5889;51.350;6.708;2023-10-08T14:09:26;19.50;99.90
11666;DHT22;5889;51.350;6.708;2023-10-08T14:12:02;19.40;99.90
11666;DHT22;5889;51.350;6.708;2023-10-08T14:14:31;19.40;99.90
11666;DHT22;5889;51.350;6.708;2023-10-08T14:17:02;19.50;99.90
11666;DHT22;5889;51.350;6.708;2023-10-08T14:19:32;19.50;99.90
11666;DHT22;5889;51.350;6.708;2023-10-08T14:22:05;19.60;99.90
11666;DHT22;5889;51.350;6.708;2023-10-08T14:24:35;19.60;99.90
11666;DHT22;5889;51.350;6.708;2023-10-08T14:27:05;19.60;99.90
11666;DHT22;5889;51.350;6.708;2023-10-08T14:29:41;19.60;99.90
11666;DHT22;5889;51.350;6.708;2023-10-08T14:32:17;19.50;99.90
11666;DHT22;5889;51.350;6.708;2023-10-08T14:34:45;19.40;99.90
11666;DHT22;5889;51.350;6.708;2023-10-08T14:37:30;19.40;99.90
11666;DHT22;5889;51.350;6.708;2023-10-08T14:40:16;19.40;99.90
11666;DHT22;5889;51.350;6.708;2023-10-08T14:43:15;19.50;99.90
11666;DHT22;5889;51.350;6.708;2023-10-08T14:45:47;19.60;99.90
11666;DHT22;5889;51.350;6.708;2023-10-08T14:48:15;19.70;99.90
11666;DHT22;5889;51.350;6.708;2023-10-08T14:50:44;19.80;99.90
11666;DHT22;5889;51.350;6.708;2023-10-08T14:53:14;19.80;99.90
11666;DHT22;5889;51.350;6.708;2023-10-08T14:55:42;19.80;99.90
11666;DHT22;5889;51.350;6.708;2023-10-08T14:58:10;19.70;99.90
11666;DHT22;5889;51.350;6.708;2023-10-08T15:00:39;19.60;99.90
11666;DHT22;5889;51.350;6.708;2023-10-08T15:03:14;19.60;99.90
11666;DHT22;5889;51.350;6.708;2023-10-08T15:05:43;19.60;99.90
11666;DHT22;5889;51.350;6.708;2023-10-08T15:08:11;19.50;99.90
11666;DHT22;5889;51.350;6.708;2023-10-08T15:10:40;19.50;99.90
11666;DHT22;5889;51.350;6.708;2023-10-08T15:13:08;19.60;99.90
11666;DHT22;5889;51.350;6.708;2023-10-08T15:15:39;19.70;99.90
11666;DHT22;5889;51.350;6.708;2023-10-08T15:18:08;19.80;99.90
11666;DHT22;5889;51.350;6.708;2023-10-08T15:20:38;19.80;99.90
11666;DHT22;5889;51.350;6.708;2023-10-08T15:23:06;19.60;99.90
11666;DHT22;5889;51.350;6.708;2023-10-08T15:25:38;19.60;99.90
11666;DHT22;5889;51.350;6.708;2023-10-08T15:28:06;19.50;99.90
11666;DHT22;5889;51.350;6.708;2023-10-08T15:30:33;19.50;99.90
11666;DHT22;5889;51.350;6.708;2023-10-08T15:33:05;19.40;99.90
11666;DHT22;5889;51.350;6.708;2023-10-08T15:35:33;19.30;99.90
11666;DHT22;5889;51.350;6.708;2023-10-08T15:38:05;19.20;99.90
11666;DHT22;5889;51.350;6.708;2023-10-08T15:40:35;19.20;99.90
11666;DHT22;5889;51.350;6.708;2023-10-08T15:43:02;19.20;99.90
11666;DHT22;5889;51.350;6.708;2023-10-08T15:45:33;19.20;99.90
11666;DHT22;5889;51.350;6.708;2023-10-08T15:48:03;19.20;99.90
11666;DHT22;5889;51.350;6.708;2023-10-08T15:50:31;19.20;99.90
11666;DHT22;5889;51.350;6.708;2023-10-08T15:52:59;19.20;99.90
11666;DHT22;5889;51.350;6.708;2023-10-08T15:55:28;19.20;99.90
11666;DHT22;5889;51.350;6.708;2023-10-08T15:57:58;19.00;99.90
11666;DHT22;5889;51.350;6.708;2023-10-08T16:00:27;19.10;99.90
11666;DHT22;5889;51.350;6.708;2023-10-08T16:02:54;19.10;99.90
11666;DHT22;5889;51.350;6.708;2023-10-08T16:05:26;19.10;99.90
11666;DHT22;5889;51.350;6.708;2023-10-08T16:07:54;19.00;99.90
11666;DHT22;5889;51.350;6.708;2023-10-08T16:10:27;19.00;99.90
11666;DHT22;5889;51.350;6.708;2023-10-08T16:12:55;18.90;99.90
11666;DHT22;5889;51.350;6.708;2023-10-08T16:15:31;18.80;99.90
11666;DHT22;5889;51.350;6.708;2023-10-08T16:17:59;18.80;99.90
11666;DHT22;5889;51.350;6.708;2023-10-08T16:20:26;18.70;99.90